Time;durP1;ratioP1;P1;durP2;ratioP2;P2;SDS_P1;SDS_P2;PMS_P1;PMS_P2;Temp;Humidity;BMP_temperature;BMP_pressure;BME280_temperature;BME280_humidity;BME280_pressure;Samples;Min_cycle;Max_cycle;Signal;HPM_P1;HPM_P2
2022/12/25 00:01:18;;;;;;;110.20;40.17;;;6.30;96.60;;;;;;5112819;27;20770;-89
2022/12/25 00:03:43;;;;;;;105.73;40.17;;;6.20;96.60;;;;;;5115059;27;20407;-91
2022/12/25 00:06:09;;;;;;;119.40;41.33;;;6.30;96.70;;;;;;5113201;27;20465;-89
2022/12/25 00:08:35;;;;;;;106.00;38.83;;;6.30;96.90;;;;;;5131831;27;20488;-90
2022/12/25 00:11:15;;;;;;;112.55;40.40;;;6.30;96.90;;;;;;5113960;27;20396;-89
2022/12/25 00:13:41;;;;;;;115.72;38.58;;;6.30;96.80;;;;;;5127709;27;20412;-89
2022/12/25 00:16:08;;;;;;;120.43;40.10;;;6.30;96.70;;;;;;5114188;27;20417;-89
2022/12/25 00:18:34;;;;;;;114.07;40.28;;;6.40;97.00;;;;;;5130179;27;20399;-90
2022/12/25 00:21:03;;;;;;;111.27;38.27;;;6.40;96.90;;;;;;5114621;27;20397;-90
2022/12/25 00:23:29;;;;;;;102.72;36.90;;;6.40;96.80;;;;;;5130001;27;20886;-91
2022/12/25 00:25:55;;;;;;;102.68;36.72;;;6.40;96.60;;;;;;5114262;27;20416;-91
2022/12/25 00:28:22;;;;;;;105.65;37.72;;;6.40;96.70;;;;;;5113609;27;20566;-89
2022/12/25 00:30:48;;;;;;;132.23;41.00;;;6.40;96.60;;;;;;5113359;27;20397;-90
2022/12/25 00:33:14;;;;;;;111.28;37.85;;;6.40;96.60;;;;;;5113954;27;20420;-89
2022/12/25 00:35:39;;;;;;;126.07;39.95;;;6.50;96.70;;;;;;5112513;27;20783;-90
2022/12/25 00:38:05;;;;;;;106.00;38.30;;;6.50;96.80;;;;;;5114538;27;20393;-91
2022/12/25 00:40:31;;;;;;;106.47;37.17;;;6.50;96.70;;;;;;5112280;27;20401;-89
2022/12/25 00:42:56;;;;;;;101.97;35.97;;;6.50;96.50;;;;;;5113801;27;20401;-89
2022/12/25 00:45:22;;;;;;;101.10;36.50;;;6.50;96.60;;;;;;5112871;27;20393;-90
2022/12/25 00:47:47;;;;;;;102.75;35.78;;;6.50;96.50;;;;;;5113422;27;21150;-91
2022/12/25 00:50:13;;;;;;;105.83;37.83;;;6.60;96.50;;;;;;5113507;27;20405;-89
2022/12/25 00:52:39;;;;;;;101.95;35.45;;;6.40;96.40;;;;;;5112482;27;21046;-90
2022/12/25 00:55:05;;;;;;;104.37;34.97;;;6.40;96.40;;;;;;5131284;27;20417;-90
2022/12/25 00:57:30;;;;;;;107.63;36.35;;;6.40;96.30;;;;;;5112187;27;20910;-90
2022/12/25 00:59:56;;;;;;;108.90;35.67;;;6.50;96.40;;;;;;5098305;27;20391;-90
2022/12/25 01:02:22;;;;;;;99.30;35.90;;;6.30;96.40;;;;;;5091617;27;20391;-90
2022/12/25 01:04:48;;;;;;;117.63;36.30;;;6.30;96.50;;;;;;5093236;27;20452;-90
2022/12/25 01:07:15;;;;;;;111.80;36.17;;;6.20;96.40;;;;;;5092457;27;20391;-90
2022/12/25 01:12:32;;;;;;;112.32;37.90;;;6.30;96.50;;;;;;5109604;27;20409;-90
2022/12/25 01:14:57;;;;;;;112.05;40.22;;;6.20;96.90;;;;;;5108274;27;21247;-89
2022/12/25 01:17:23;;;;;;;111.13;38.08;;;6.20;96.70;;;;;;5093694;27;20732;-90
2022/12/25 01:19:49;;;;;;;122.85;40.75;;;6.40;96.80;;;;;;5091255;27;20410;-90
2022/12/25 01:22:15;;;;;;;105.97;38.23;;;6.40;96.70;;;;;;5109626;27;20409;-91
2022/12/25 01:24:42;;;;;;;120.50;41.30;;;6.20;96.80;;;;;;5092427;27;20901;-91
2022/12/25 01:27:08;;;;;;;110.18;38.45;;;6.30;97.00;;;;;;5091874;27;20408;-91
2022/12/25 01:29:34;;;;;;;116.82;41.30;;;6.30;96.90;;;;;;5110159;27;20410;-90
2022/12/25 01:32:00;;;;;;;120.22;41.45;;;6.30;96.90;;;;;;5091314;27;20409;-91
2022/12/25 01:34:25;;;;;;;122.17;41.90;;;6.30;97.00;;;;;;5092290;27;20429;-91
2022/12/25 01:36:51;;;;;;;126.63;43.67;;;6.40;97.00;;;;;;5108138;27;20449;-90
2022/12/25 01:39:17;;;;;;;132.98;45.13;;;6.50;97.20;;;;;;5109823;27;20403;-90
2022/12/25 01:41:42;;;;;;;117.50;40.97;;;6.50;97.00;;;;;;5091721;27;20943;-89
2022/12/25 01:44:34;;;;;;;115.07;42.47;;;6.50;97.00;;;;;;5109327;27;20421;-90
2022/12/25 01:47:00;;;;;;;132.77;46.45;;;6.50;97.00;;;;;;5109734;27;20462;-90
2022/12/25 01:49:26;;;;;;;131.18;44.58;;;6.60;97.20;;;;;;5108064;27;20391;-90
2022/12/25 01:52:02;;;;;;;118.57;41.72;;;6.60;97.00;;;;;;5110004;27;20459;-90
2022/12/25 01:54:36;;;;;;;114.50;41.15;;;6.70;97.00;;;;;;5108105;28;20665;-90
2022/12/25 01:57:08;;;;;;;117.10;41.57;;;6.70;96.90;;;;;;5091876;28;20422;-91
2022/12/25 01:59:33;;;;;;;108.13;40.45;;;6.80;97.10;;;;;;5109607;28;20434;-91
2022/12/25 02:01:59;;;;;;;112.18;41.30;;;7.00;97.00;;;;;;5090977;28;20434;-91
2022/12/25 02:04:37;;;;;;;109.82;39.97;;;6.80;96.90;;;;;;5092190;28;20399;-90
2022/12/25 02:07:24;;;;;;;105.15;39.40;;;6.90;96.90;;;;;;5090971;28;20410;-90
2022/12/25 02:09:50;;;;;;;104.95;38.90;;;6.90;97.00;;;;;;5092393;28;20402;-89
2022/12/25 02:12:25;;;;;;;107.45;38.78;;;7.00;97.00;;;;;;5091678;28;20475;-90
2022/12/25 02:14:54;;;;;;;100.38;38.83;;;7.10;96.80;;;;;;5107975;28;20426;-91
2022/12/25 02:17:57;;;;;;;103.85;40.03;;;7.10;96.80;;;;;;5109452;28;20421;-91
2022/12/25 02:20:41;;;;;;;101.78;40.03;;;7.20;96.80;;;;;;5090865;28;20412;-90
2022/12/25 02:23:25;;;;;;;93.47;39.00;;;7.20;96.80;;;;;;5109639;27;20410;-90
2022/12/25 02:26:09;;;;;;;108.22;40.83;;;7.30;96.80;;;;;;5113566;27;20417;-91
2022/12/25 02:28:44;;;;;;;119.13;43.80;;;7.30;96.70;;;;;;5111458;27;20398;-91
2022/12/25 02:31:21;;;;;;;120.63;43.33;;;7.40;96.70;;;;;;5113509;27;20414;-91
2022/12/25 02:34:07;;;;;;;96.75;41.17;;;7.40;96.70;;;;;;5095269;27;20418;-91
2022/12/25 02:36:53;;;;;;;111.85;43.55;;;7.40;96.70;;;;;;5111719;27;20490;-91
2022/12/25 03:06:41;;;;;;;102.75;41.90;;;7.50;96.70;;;;;;5112685;27;20834;-89
2022/12/25 03:07:19;;;;;;;93.30;41.67;;;7.90;96.70;;;;;;5110685;27;20399;-89
2022/12/25 03:12:47;;;;;;;99.47;42.47;;;8.00;96.70;;;;;;5111391;27;20407;-89
2022/12/25 03:18:01;;;;;;;111.32;45.97;;;8.00;96.70;;;;;;5112375;27;20395;-91
2022/12/25 03:28:47;;;;;;;101.07;43.28;;;8.10;96.50;;;;;;5110617;27;20410;-89
2022/12/25 03:31:29;;;;;;;100.47;44.50;;;8.20;96.50;;;;;;5095371;27;20398;-90
2022/12/25 04:36:20;;;;;;;116.53;44.50;;;8.50;96.50;;;;;;5049403;28;20475;-90
2022/12/25 04:38:46;;;;;;;114.85;44.05;;;8.60;96.60;;;;;;5079780;27;20410;-92
2022/12/25 04:41:12;;;;;;;116.10;44.58;;;8.60;96.60;;;;;;5110466;27;20897;-91
2022/12/25 04:43:39;;;;;;;126.50;45.28;;;8.60;96.50;;;;;;5109788;27;20398;-90
2022/12/25 04:46:05;;;;;;;126.47;46.42;;;8.60;96.60;;;;;;5092634;27;20405;-91
2022/12/25 04:48:34;;;;;;;122.10;45.72;;;8.60;96.60;;;;;;5093978;27;20877;-90
2022/12/25 04:51:18;;;;;;;115.07;44.85;;;8.80;96.60;;;;;;5109127;27;20965;-91
2022/12/25 04:53:44;;;;;;;117.17;43.90;;;8.70;96.50;;;;;;5110749;27;20555;-91
2022/12/25 04:56:10;;;;;;;107.78;42.47;;;8.70;96.40;;;;;;5091662;27;20453;-91
2022/12/25 04:58:36;;;;;;;105.82;42.70;;;8.80;96.30;;;;;;5093081;27;20972;-90
2022/12/25 05:01:03;;;;;;;101.25;41.72;;;8.80;96.40;;;;;;5110219;27;20409;-91
2022/12/25 05:03:29;;;;;;;87.17;39.23;;;8.80;96.40;;;;;;5109571;27;20897;-91
2022/12/25 05:05:55;;;;;;;93.10;39.20;;;8.80;96.40;;;;;;5093129;27;20413;-90
2022/12/25 05:08:21;;;;;;;95.07;40.10;;;8.90;96.40;;;;;;5108756;27;20901;-91
2022/12/25 05:10:47;;;;;;;100.75;40.38;;;8.80;96.20;;;;;;5093451;27;20581;-91
2022/12/25 05:13:13;;;;;;;92.80;40.25;;;8.90;96.20;;;;;;5108485;27;20410;-91
2022/12/25 05:15:39;;;;;;;97.22;39.65;;;9.00;96.20;;;;;;5093218;27;20430;-91
2022/12/25 05:18:05;;;;;;;89.80;39.70;;;8.90;96.20;;;;;;5091664;27;20406;-90
2022/12/25 05:20:31;;;;;;;80.35;37.63;;;8.90;96.20;;;;;;5093007;27;20757;-91
2022/12/25 05:22:57;;;;;;;95.47;40.17;;;8.90;96.10;;;;;;5093077;27;20410;-91
2022/12/25 05:25:23;;;;;;;86.70;38.95;;;8.90;96.30;;;;;;5108740;27;20460;-92
2022/12/25 05:27:49;;;;;;;79.95;38.05;;;8.90;96.00;;;;;;5110268;27;20541;-91
2022/12/25 05:30:15;;;;;;;80.93;38.80;;;8.90;96.30;;;;;;5091374;27;20436;-90
2022/12/25 05:32:40;;;;;;;83.85;38.85;;;8.80;96.00;;;;;;5110402;27;20466;-91
2022/12/25 05:35:07;;;;;;;88.63;39.77;;;8.80;96.00;;;;;;5091275;27;20548;-92
2022/12/25 05:37:34;;;;;;;91.82;40.38;;;8.80;96.00;;;;;;5092807;27;20453;-92
2022/12/25 05:40:00;;;;;;;84.28;39.55;;;8.80;96.10;;;;;;5091965;27;20446;-90
2022/12/25 05:42:26;;;;;;;83.88;38.97;;;8.80;96.10;;;;;;5091373;27;20411;-91
2022/12/25 05:44:52;;;;;;;96.93;41.08;;;9.10;96.20;;;;;;5109347;27;20923;-90
2022/12/25 05:47:17;;;;;;;101.03;42.30;;;8.80;96.10;;;;;;5091297;27;20418;-92
2022/12/25 05:49:43;;;;;;;93.63;41.27;;;8.80;96.10;;;;;;5109870;28;20395;-89
2022/12/25 05:52:09;;;;;;;105.00;41.83;;;8.80;96.10;;;;;;5107474;27;20746;-92
2022/12/25 05:54:34;;;;;;;100.28;42.13;;;8.50;96.00;;;;;;5092603;28;20422;-90
2022/12/25 05:57:00;;;;;;;108.73;42.60;;;8.80;96.20;;;;;;5090967;28;20409;-92
2022/12/25 05:59:28;;;;;;;105.43;43.00;;;8.80;96.20;;;;;;5091418;28;20432;-91
2022/12/25 06:01:55;;;;;;;100.43;43.15;;;8.80;96.20;;;;;;5092327;28;20464;-92
2022/12/25 06:04:21;;;;;;;103.93;43.33;;;8.80;96.20;;;;;;5091029;28;20485;-90
2022/12/25 06:06:47;;;;;;;110.40;44.40;;;8.80;96.20;;;;;;5092210;28;20586;-89
2022/12/25 06:09:13;;;;;;;117.67;44.53;;;8.90;96.30;;;;;;5107179;28;20403;-90
2022/12/25 06:11:39;;;;;;;102.22;43.08;;;8.80;96.30;;;;;;5109052;28;20403;-92
2022/12/25 06:14:05;;;;;;;101.83;42.30;;;8.90;96.30;;;;;;5107900;28;20395;-91
2022/12/25 06:16:31;;;;;;;109.93;43.63;;;8.90;96.30;;;;;;5091589;28;20427;-91
2022/12/25 06:18:56;;;;;;;100.47;43.17;;;8.90;96.20;;;;;;5108601;28;20436;-90
2022/12/25 06:21:22;;;;;;;112.43;43.90;;;8.90;96.30;;;;;;5108130;27;20791;-90
2022/12/25 06:23:48;;;;;;;103.40;42.57;;;8.90;96.30;;;;;;5092810;28;20402;-90
2022/12/25 06:26:16;;;;;;;101.37;42.20;;;8.90;96.50;;;;;;5088338;28;20415;-89
2022/12/25 06:28:43;;;;;;;100.60;42.63;;;8.90;96.20;;;;;;5086617;28;20430;-89
2022/12/25 06:31:15;;;;;;;100.18;42.00;;;9.20;96.30;;;;;;5088064;28;20403;-90
2022/12/25 06:33:41;;;;;;;83.53;39.88;;;9.00;96.20;;;;;;5090266;28;20501;-90
2022/12/25 06:36:15;;;;;;;103.37;41.23;;;9.00;96.20;;;;;;5089565;28;20778;-92
2022/12/25 06:38:44;;;;;;;81.60;38.35;;;9.20;96.20;;;;;;5106035;27;20417;-91
2022/12/25 06:41:15;;;;;;;74.68;36.75;;;9.10;96.10;;;;;;5109005;28;20410;-91
2022/12/25 06:43:41;;;;;;;91.60;40.07;;;9.50;96.20;;;;;;5107788;28;20796;-89
2022/12/25 06:46:10;;;;;;;83.67;38.33;;;9.40;96.20;;;;;;5109284;28;20455;-92
2022/12/25 06:48:38;;;;;;;86.57;39.27;;;9.10;96.00;;;;;;5106042;27;20454;-90
2022/12/25 06:51:04;;;;;;;92.18;39.63;;;9.40;96.10;;;;;;5112374;27;20408;-90
2022/12/25 06:53:30;;;;;;;98.38;40.17;;;9.20;96.10;;;;;;5107188;27;20804;-90
2022/12/25 06:56:14;;;;;;;83.72;38.28;;;9.20;96.00;;;;;;5105396;27;20427;-90
2022/12/25 06:58:44;;;;;;;89.00;39.20;;;9.20;95.90;;;;;;5106230;27;20425;-91
2022/12/25 07:01:13;;;;;;;78.55;37.10;;;9.20;95.90;;;;;;5111163;27;21062;-90
2022/12/25 07:03:42;;;;;;;69.93;36.20;;;9.20;95.90;;;;;;5129579;27;20407;-90
2022/12/25 07:06:07;;;;;;;71.70;36.03;;;9.20;95.90;;;;;;5111028;27;20397;-90
2022/12/25 07:08:33;;;;;;;69.72;35.30;;;9.50;96.00;;;;;;5112180;27;20732;-91
2022/12/25 07:10:59;;;;;;;69.60;34.95;;;9.20;95.80;;;;;;5113728;27;20898;-89
2022/12/25 07:13:25;;;;;;;66.77;35.03;;;9.20;95.80;;;;;;5115043;27;20405;-90
2022/12/25 07:15:58;;;;;;;64.27;34.43;;;9.20;95.80;;;;;;5115084;27;21008;-89
2022/12/25 07:18:26;;;;;;;74.47;35.35;;;9.20;95.70;;;;;;5113747;27;20424;-89
2022/12/25 07:20:51;;;;;;;68.28;33.67;;;9.20;95.70;;;;;;5115543;27;20409;-90
2022/12/25 07:23:17;;;;;;;71.53;35.15;;;9.20;95.80;;;;;;5130765;27;20399;-90
2022/12/25 07:25:42;;;;;;;73.20;35.60;;;9.20;95.80;;;;;;5115476;27;20771;-90
2022/12/25 07:28:08;;;;;;;66.93;34.30;;;9.30;95.80;;;;;;5131677;27;20405;-91
2022/12/25 07:30:34;;;;;;;65.28;34.50;;;9.20;95.80;;;;;;5104394;27;20912;-91
2022/12/25 07:33:00;;;;;;;60.55;33.50;;;9.20;95.70;;;;;;5103999;27;20410;-90
2022/12/25 07:35:25;;;;;;;68.77;34.77;;;9.20;95.80;;;;;;5105055;27;20433;-90
2022/12/25 07:37:51;;;;;;;70.80;34.85;;;9.20;95.80;;;;;;5102613;27;20405;-89
2022/12/25 07:40:16;;;;;;;62.80;34.27;;;9.30;95.80;;;;;;5118356;27;20389;-89
2022/12/25 07:42:42;;;;;;;63.70;32.93;;;9.30;96.10;;;;;;5104817;27;20496;-90
2022/12/25 07:45:08;;;;;;;59.83;32.10;;;9.40;95.80;;;;;;5119168;27;20426;-89
2022/12/25 07:47:34;;;;;;;59.65;32.70;;;9.30;95.70;;;;;;5119585;27;20398;-89
2022/12/25 07:49:59;;;;;;;58.67;31.87;;;9.30;95.70;;;;;;5119276;27;20908;-90
2022/12/25 07:52:25;;;;;;;63.20;32.90;;;9.30;95.70;;;;;;5102338;27;20844;-89
2022/12/25 07:54:51;;;;;;;56.55;31.02;;;9.30;95.70;;;;;;5105740;27;20422;-90
2022/12/25 07:57:16;;;;;;;52.23;29.93;;;9.30;95.60;;;;;;5101539;27;20401;-91
2022/12/25 07:59:42;;;;;;;51.25;29.60;;;9.30;95.60;;;;;;5121827;27;20400;-90
2022/12/25 08:02:09;;;;;;;48.87;29.23;;;9.40;95.60;;;;;;5102589;27;20402;-89
2022/12/25 08:04:35;;;;;;;48.85;28.33;;;9.40;95.60;;;;;;5120173;27;20417;-90
2022/12/25 08:07:00;;;;;;;51.53;28.60;;;9.40;95.50;;;;;;5103801;27;20405;-91
2022/12/25 08:09:26;;;;;;;47.37;26.80;;;9.40;95.60;;;;;;5094066;27;20391;-90
2022/12/25 08:11:52;;;;;;;49.50;27.27;;;9.40;95.50;;;;;;5127874;27;20402;-89
2022/12/25 08:14:17;;;;;;;48.87;27.93;;;9.40;95.50;;;;;;5109322;27;20410;-91
2022/12/25 08:16:45;;;;;;;51.90;27.77;;;9.40;95.50;;;;;;5110830;27;20471;-89
2022/12/25 08:19:10;;;;;;;41.90;25.60;;;9.50;95.50;;;;;;5092678;27;20822;-90
2022/12/25 08:21:37;;;;;;;42.20;25.23;;;9.50;95.50;;;;;;5093892;27;20833;-90
2022/12/25 08:24:03;;;;;;;44.17;26.60;;;9.60;95.50;;;;;;5092465;27;20411;-89
2022/12/25 08:26:28;;;;;;;40.23;24.83;;;9.40;95.50;;;;;;5093221;27;20901;-91
2022/12/25 08:28:54;;;;;;;42.93;25.03;;;9.40;95.40;;;;;;5093027;27;20485;-88
2022/12/25 08:31:25;;;;;;;42.85;25.23;;;9.40;95.40;;;;;;5109761;27;20456;-91
2022/12/25 08:33:54;;;;;;;42.50;24.75;;;9.40;95.40;;;;;;5110822;27;20889;-91
2022/12/25 08:36:20;;;;;;;44.10;24.65;;;9.40;95.40;;;;;;5091848;27;20839;-90
2022/12/25 08:38:46;;;;;;;38.15;22.98;;;9.40;95.40;;;;;;5094430;27;20403;-91
2022/12/25 08:41:13;;;;;;;36.22;21.38;;;9.40;95.30;;;;;;5126239;27;20859;-90
2022/12/25 08:43:39;;;;;;;39.22;23.00;;;9.40;95.30;;;;;;5110599;27;20474;-90
2022/12/25 08:46:05;;;;;;;36.90;22.50;;;9.40;95.30;;;;;;5092754;27;20415;-89
2022/12/25 08:48:31;;;;;;;34.20;21.95;;;9.40;95.30;;;;;;5093088;27;20406;-90
2022/12/25 08:50:57;;;;;;;35.85;21.92;;;9.40;95.20;;;;;;5110478;27;20415;-91
2022/12/25 08:53:23;;;;;;;35.17;21.23;;;9.40;95.20;;;;;;5108761;27;20403;-89
2022/12/25 08:55:56;;;;;;;36.47;21.70;;;9.60;95.20;;;;;;5127851;27;20484;-90
2022/12/25 08:58:22;;;;;;;31.52;20.73;;;9.30;95.30;;;;;;5108998;27;20402;-90
2022/12/25 09:00:48;;;;;;;36.40;21.48;;;9.30;95.30;;;;;;5110932;27;20475;-91
2022/12/25 09:03:13;;;;;;;36.47;21.70;;;9.30;95.40;;;;;;5091861;27;20399;-89
2022/12/25 09:05:39;;;;;;;35.83;21.92;;;9.40;95.40;;;;;;5092346;27;20405;-89
2022/12/25 09:08:05;;;;;;;32.47;20.50;;;9.30;95.40;;;;;;5092810;27;20765;-90
2022/12/25 09:10:33;;;;;;;35.53;20.40;;;9.30;95.30;;;;;;5091378;27;20398;-90
2022/12/25 09:12:59;;;;;;;32.38;19.48;;;9.30;95.30;;;;;;5127126;27;20920;-91
2022/12/25 09:15:24;;;;;;;28.80;19.30;;;9.30;95.30;;;;;;5125241;27;20443;-90
2022/12/25 09:17:50;;;;;;;30.60;19.70;;;9.30;95.30;;;;;;5110164;27;20464;-90
2022/12/25 09:20:16;;;;;;;29.90;18.67;;;9.40;95.30;;;;;;5108455;27;20411;-90
2022/12/25 09:22:41;;;;;;;30.47;18.27;;;9.40;95.30;;;;;;5109624;27;21008;-89
2022/12/25 09:25:07;;;;;;;29.75;18.63;;;9.40;95.30;;;;;;5091445;27;20405;-89
2022/12/25 09:27:33;;;;;;;29.40;17.48;;;9.40;95.30;;;;;;5091938;27;20417;-89
2022/12/25 09:29:58;;;;;;;28.03;17.47;;;9.40;95.30;;;;;;5109087;27;20392;-89
2022/12/25 09:32:24;;;;;;;27.00;18.10;;;9.40;95.30;;;;;;5090674;28;20409;-89
2022/12/25 09:34:50;;;;;;;33.42;18.77;;;9.40;95.20;;;;;;5092188;27;20418;-89
2022/12/25 09:37:16;;;;;;;25.30;16.10;;;9.50;95.30;;;;;;5090840;27;20803;-89
2022/12/25 09:39:42;;;;;;;26.00;17.58;;;9.80;95.30;;;;;;5127209;27;20441;-90
2022/12/25 09:42:19;;;;;;;25.60;17.10;;;9.70;95.30;;;;;;5091021;27;20403;-90
2022/12/25 09:45:01;;;;;;;24.08;16.13;;;9.50;95.20;;;;;;5091679;27;20442;-90
2022/12/25 09:47:34;;;;;;;25.02;16.40;;;9.50;95.20;;;;;;5109747;27;20834;-90
2022/12/25 09:50:10;;;;;;;27.70;17.10;;;9.70;95.20;;;;;;5124654;27;20409;-90
2022/12/25 09:52:56;;;;;;;27.30;16.83;;;9.50;95.20;;;;;;5126837;27;20529;-90
2022/12/25 09:55:24;;;;;;;25.02;16.92;;;9.50;95.10;;;;;;5108604;28;20505;-90
2022/12/25 09:57:55;;;;;;;25.65;15.90;;;9.60;95.20;;;;;;5108782;28;20754;-91
2022/12/25 10:00:23;;;;;;;24.40;16.48;;;9.50;95.00;;;;;;5126812;28;20841;-90
2022/12/25 10:03:14;;;;;;;24.90;15.25;;;9.50;95.00;;;;;;5091332;28;20756;-90
2022/12/25 10:06:00;;;;;;;27.98;16.98;;;9.50;95.00;;;;;;5092865;28;20421;-90
2022/12/25 10:08:32;;;;;;;21.00;15.98;;;9.50;95.00;;;;;;5126042;28;20759;-90
2022/12/25 10:11:21;;;;;;;22.67;16.17;;;9.50;95.00;;;;;;5091359;28;20450;-90
2022/12/25 10:13:53;;;;;;;21.88;14.80;;;9.50;95.00;;;;;;5092984;28;20463;-91
2022/12/25 10:16:47;;;;;;;21.17;14.80;;;9.50;94.90;;;;;;5124781;28;20509;-90
2022/12/25 10:19:19;;;;;;;21.80;14.40;;;9.50;94.90;;;;;;5108737;28;20406;-90
2022/12/25 10:21:46;;;;;;;19.48;14.00;;;9.50;94.80;;;;;;5109979;28;21007;-90
2022/12/25 10:24:36;;;;;;;19.48;14.15;;;9.50;94.70;;;;;;5125032;28;20769;-90
2022/12/25 10:27:12;;;;;;;20.83;14.73;;;9.50;94.80;;;;;;5109376;28;20761;-91
2022/12/25 10:29:38;;;;;;;20.73;14.68;;;9.50;94.90;;;;;;5091082;28;20406;-88
2022/12/25 10:32:04;;;;;;;21.30;14.45;;;9.60;94.90;;;;;;5092037;28;20403;-91
2022/12/25 10:34:30;;;;;;;19.38;14.00;;;9.60;94.90;;;;;;5091824;28;20415;-89
2022/12/25 10:36:55;;;;;;;20.00;13.47;;;9.60;94.80;;;;;;5091307;28;20414;-91
2022/12/25 10:39:24;;;;;;;18.80;12.40;;;9.70;94.70;;;;;;5092260;28;20820;-89
2022/12/25 10:42:06;;;;;;;19.60;13.50;;;9.70;94.60;;;;;;5090160;28;20475;-91
2022/12/25 10:44:33;;;;;;;15.20;12.60;;;9.70;94.70;;;;;;5094395;27;20863;-90
2022/12/25 10:47:00;;;;;;;17.88;12.75;;;9.80;94.60;;;;;;5094874;27;20764;-90
2022/12/25 10:49:38;;;;;;;16.73;12.38;;;9.70;94.60;;;;;;5129888;27;20494;-90
2022/12/25 10:52:19;;;;;;;16.83;12.45;;;9.80;94.60;;;;;;5126876;27;20414;-89
2022/12/25 10:54:45;;;;;;;15.15;12.13;;;9.70;94.40;;;;;;5094472;27;20426;-91
2022/12/25 10:57:16;;;;;;;15.95;12.32;;;9.80;94.50;;;;;;5113706;27;20407;-91
2022/12/25 10:59:48;;;;;;;15.30;11.90;;;9.80;94.60;;;;;;5094203;27;20499;-90
2022/12/25 11:02:22;;;;;;;14.30;10.90;;;9.70;94.40;;;;;;5095813;27;20793;-90
2022/12/25 11:04:49;;;;;;;16.02;11.90;;;9.80;94.30;;;;;;5095251;27;20406;-89
2022/12/25 11:07:17;;;;;;;14.50;11.18;;;9.80;94.40;;;;;;5128683;27;20906;-90
2022/12/25 11:10:00;;;;;;;14.13;10.60;;;9.90;94.50;;;;;;5095580;27;20402;-90
2022/12/25 11:12:31;;;;;;;12.93;10.32;;;9.90;94.40;;;;;;5094038;27;20411;-90
2022/12/25 11:15:05;;;;;;;12.98;9.80;;;9.90;94.20;;;;;;5129981;27;20429;-91
2022/12/25 11:17:31;;;;;;;13.00;9.90;;;10.00;94.00;;;;;;5094971;27;20478;-90
2022/12/25 11:19:59;;;;;;;12.20;9.75;;;10.00;94.20;;;;;;5094529;27;20936;-92
2022/12/25 11:22:25;;;;;;;9.90;8.50;;;10.00;94.20;;;;;;5095352;27;20489;-90
2022/12/25 11:24:51;;;;;;;12.43;10.05;;;10.00;93.90;;;;;;5093808;27;20395;-90
2022/12/25 11:27:29;;;;;;;12.02;9.40;;;10.00;94.00;;;;;;5112906;27;20505;-91
2022/12/25 11:30:00;;;;;;;11.98;8.85;;;10.00;93.90;;;;;;5107634;27;20471;-90
2022/12/25 11:32:39;;;;;;;12.05;9.82;;;10.10;93.80;;;;;;5093454;27;20830;-90
2022/12/25 11:35:12;;;;;;;12.10;9.73;;;10.10;94.00;;;;;;5111553;27;20446;-89
2022/12/25 11:37:43;;;;;;;11.55;9.68;;;10.10;93.90;;;;;;5127889;27;20409;-91
2022/12/25 11:40:45;;;;;;;11.73;9.20;;;10.30;93.90;;;;;;5095387;27;20494;-90
2022/12/25 11:43:17;;;;;;;10.03;8.50;;;10.10;93.80;;;;;;5093494;27;20496;-90
2022/12/25 11:45:58;;;;;;;10.02;8.23;;;10.10;93.70;;;;;;5128552;27;20403;-90
2022/12/25 11:48:34;;;;;;;11.02;8.90;;;10.10;93.60;;;;;;5112018;27;20402;-90
2022/12/25 11:51:02;;;;;;;12.05;9.52;;;10.10;93.80;;;;;;5093211;27;20417;-89
2022/12/25 11:53:40;;;;;;;11.05;8.57;;;10.10;93.80;;;;;;5129206;27;20411;-89
2022/12/25 11:56:09;;;;;;;12.40;9.13;;;10.10;93.70;;;;;;5126387;27;21013;-90
2022/12/25 11:58:52;;;;;;;12.52;9.23;;;10.40;93.70;;;;;;5128422;27;20395;-90
2022/12/25 12:01:45;;;;;;;12.50;8.77;;;10.10;93.70;;;;;;5092678;27;20872;-89
2022/12/25 12:04:20;;;;;;;12.98;9.60;;;10.20;93.70;;;;;;5092568;27;20411;-90
2022/12/25 12:06:53;;;;;;;12.05;9.27;;;10.10;93.70;;;;;;5111282;27;20411;-90
2022/12/25 12:09:47;;;;;;;13.02;10.25;;;10.10;93.60;;;;;;5093064;27;20407;-89
2022/12/25 12:12:39;;;;;;;13.90;10.52;;;10.10;93.80;;;;;;5092664;27;20430;-90
2022/12/25 12:15:07;;;;;;;15.40;10.60;;;10.10;93.80;;;;;;5054075;27;20465;-90
2022/12/25 12:17:33;;;;;;;14.07;11.05;;;10.10;93.80;;;;;;5092562;27;20742;-90
2022/12/25 12:20:26;;;;;;;15.23;11.00;;;10.10;93.80;;;;;;5110399;27;20920;-90
2022/12/25 12:22:52;;;;;;;16.75;11.25;;;10.10;94.00;;;;;;5093643;27;20394;-90
2022/12/25 12:25:18;;;;;;;15.18;11.65;;;10.10;93.90;;;;;;5109598;27;20525;-89
2022/12/25 12:27:44;;;;;;;14.88;10.75;;;10.10;93.90;;;;;;5093614;27;20479;-90
2022/12/25 12:30:24;;;;;;;14.32;10.45;;;10.10;93.80;;;;;;5091572;27;20402;-89
2022/12/25 12:32:53;;;;;;;15.50;10.98;;;10.10;93.90;;;;;;5093715;27;20425;-91
2022/12/25 12:35:41;;;;;;;13.80;11.17;;;10.10;93.90;;;;;;5092344;27;20426;-89
2022/12/25 12:38:18;;;;;;;14.13;10.38;;;10.10;93.80;;;;;;5108471;27;20414;-89
2022/12/25 12:40:54;;;;;;;16.23;11.05;;;10.10;93.80;;;;;;5110448;27;20411;-89
2022/12/25 12:43:34;;;;;;;15.98;10.55;;;10.10;93.80;;;;;;5091570;27;20470;-90
2022/12/25 12:46:07;;;;;;;13.68;9.63;;;10.10;93.80;;;;;;5110044;27;20399;-91
2022/12/25 12:48:39;;;;;;;15.45;10.63;;;10.10;93.80;;;;;;5126779;27;20407;-87
2022/12/25 12:51:08;;;;;;;15.82;11.38;;;10.10;93.80;;;;;;5109025;27;20503;-90
2022/12/25 12:53:35;;;;;;;15.10;10.32;;;10.10;93.90;;;;;;5110246;27;20419;-90
2022/12/25 12:56:12;;;;;;;14.73;11.00;;;10.10;93.90;;;;;;5108149;27;20430;-90
2022/12/25 12:58:47;;;;;;;15.88;10.43;;;10.10;93.90;;;;;;5093459;27;20407;-91
2022/12/25 13:01:16;;;;;;;13.95;10.18;;;10.10;93.90;;;;;;5091572;27;20419;-89
2022/12/25 13:04:07;;;;;;;14.50;10.87;;;10.10;93.80;;;;;;5092236;27;20417;-89
2022/12/25 13:06:40;;;;;;;14.93;9.77;;;10.20;94.00;;;;;;5092648;27;20781;-90
2022/12/25 13:09:48;;;;;;;16.17;10.40;;;10.20;93.60;;;;;;5091471;27;20413;-89
2022/12/25 13:12:15;;;;;;;16.45;10.77;;;10.10;93.70;;;;;;5109413;27;20410;-90
2022/12/25 13:14:46;;;;;;;16.97;10.70;;;10.10;93.70;;;;;;5092020;27;20390;-88
2022/12/25 13:17:24;;;;;;;14.85;10.52;;;10.20;93.80;;;;;;5108047;27;20428;-89
2022/12/25 13:19:58;;;;;;;18.52;12.05;;;10.20;93.70;;;;;;5109803;27;20932;-90
2022/12/25 13:22:35;;;;;;;16.02;11.95;;;10.10;93.80;;;;;;5108410;27;20485;-90
2022/12/25 13:25:07;;;;;;;14.02;11.07;;;10.20;93.90;;;;;;5092758;27;20409;-89
2022/12/25 13:27:33;;;;;;;14.05;9.85;;;10.20;93.80;;;;;;5092087;27;20750;-90
2022/12/25 13:29:59;;;;;;;14.98;10.27;;;10.20;93.50;;;;;;5108169;27;20406;-90
2022/12/25 13:32:31;;;;;;;14.48;10.70;;;10.20;93.60;;;;;;5091600;27;20403;-89
2022/12/25 13:34:58;;;;;;;14.48;10.65;;;10.20;93.80;;;;;;5107679;27;20947;-91
2022/12/25 13:37:29;;;;;;;15.68;12.38;;;10.40;93.70;;;;;;5092653;27;20472;-90
2022/12/25 13:40:05;;;;;;;14.18;11.02;;;10.20;93.80;;;;;;5091000;27;20489;-89
2022/12/25 13:42:36;;;;;;;17.33;11.85;;;10.20;93.80;;;;;;5091548;27;20879;-89
2022/12/25 13:45:13;;;;;;;13.52;11.15;;;10.20;93.80;;;;;;5090711;27;20406;-89
2022/12/25 13:47:42;;;;;;;18.13;12.25;;;10.20;93.70;;;;;;5089066;27;20885;-89
2022/12/25 13:50:29;;;;;;;17.47;12.10;;;10.20;93.90;;;;;;5091391;28;20519;-90
2022/12/25 13:52:58;;;;;;;17.77;12.77;;;10.20;93.80;;;;;;5089477;28;20402;-90
2022/12/25 13:55:29;;;;;;;16.00;12.07;;;10.30;93.80;;;;;;5091515;27;20933;-89
2022/12/25 13:58:03;;;;;;;16.40;11.80;;;10.20;94.00;;;;;;5108411;28;20414;-90
2022/12/25 14:00:44;;;;;;;16.77;12.13;;;10.20;93.90;;;;;;5107974;28;20827;-89
2022/12/25 14:03:20;;;;;;;18.23;11.57;;;10.20;93.80;;;;;;5108803;28;20973;-88
2022/12/25 14:05:58;;;;;;;16.65;11.82;;;10.20;94.00;;;;;;5090641;28;20406;-88
2022/12/25 14:08:27;;;;;;;21.00;14.05;;;10.20;93.90;;;;;;5108644;28;20419;-89
2022/12/25 14:10:54;;;;;;;17.08;12.93;;;10.20;93.90;;;;;;5091032;28;20474;-88
2022/12/25 14:13:23;;;;;;;17.38;12.00;;;10.20;93.80;;;;;;5107585;28;20402;-90
2022/12/25 14:15:50;;;;;;;17.08;12.05;;;10.30;93.80;;;;;;5108345;28;20475;-89
2022/12/25 14:18:18;;;;;;;16.85;12.52;;;10.20;93.80;;;;;;5106929;27;20881;-91
2022/12/25 14:21:09;;;;;;;17.97;13.77;;;10.20;93.80;;;;;;5112373;27;20909;-89
2022/12/25 14:23:46;;;;;;;19.98;13.52;;;10.20;93.90;;;;;;5094954;27;20410;-89
2022/12/25 14:26:17;;;;;;;18.93;13.87;;;10.30;93.80;;;;;;5111827;27;20528;-90
2022/12/25 14:28:51;;;;;;;18.83;13.52;;;10.20;93.80;;;;;;5095990;27;20403;-90
2022/12/25 14:31:18;;;;;;;16.50;11.23;;;10.20;93.80;;;;;;5093905;27;20846;-90
2022/12/25 14:33:45;;;;;;;19.42;13.95;;;10.30;93.80;;;;;;5112633;27;20405;-88